Fayetteville/Pope AFB, North Carolina
Current Conditions -  °F | °C
As of 11:58 PM on Monday 20 Oct 2014 (Local Time) from KPOB Reporting Station
Broken Clouds Broken Clouds  
Wind Chill: 57°   Ceiling: 20000
Heat Index: 57°   Visibility: 10mi
Dew Point: 53°   Wind: 1mph
Humidity: 86%   Direction: 10°N
Pressure: 29.99"   Gusts: NA
Location:  35.16°N, 79.01°W
Report Text: KPOB 210358Z AUTO 01001KT 10SM SCT180 BKN200 14/11 A2999 RMK AO2 CIG 180 RWY05 SLP158 T01370114
Loading
Personal Weather Stations






























Interactive Weather Map
Tropical Storm Tracking
New forecast layout! Learn more

10-Day Weather Forecast

Advertisements
Track Severe Weather on mobile